sensor_id;sensor_type;location;lat;lon;timestamp;P1;P2;P0
64627;PMS5003;68467;50.960;0.314;2023-06-22T00:01:19;16;16;
64627;PMS5003;68467;50.960;0.314;2023-06-22T00:03:46;16;14;
64627;PMS5003;68467;50.960;0.314;2023-06-22T00:06:14;14;14;
64627;PMS5003;68467;50.960;0.314;2023-06-22T00:08:41;15;15;
64627;PMS5003;68467;50.960;0.314;2023-06-22T00:11:09;13;13;
64627;PMS5003;68467;50.960;0.314;2023-06-22T00:13:36;15;15;
64627;PMS5003;68467;50.960;0.314;2023-06-22T00:16:04;13;13;
64627;PMS5003;68467;50.960;0.314;2023-06-22T00:18:31;16;16;
64627;PMS5003;68467;50.960;0.314;2023-06-22T00:20:59;16;15;
64627;PMS5003;68467;50.960;0.314;2023-06-22T00:23:26;18;17;
64627;PMS5003;68467;50.960;0.314;2023-06-22T00:25:54;16;16;
64627;PMS5003;68467;50.960;0.314;2023-06-22T00:28:21;18;17;
64627;PMS5003;68467;50.960;0.314;2023-06-22T00:30:49;18;16;
64627;PMS5003;68467;50.960;0.314;2023-06-22T00:33:16;22;21;
64627;PMS5003;68467;50.960;0.314;2023-06-22T00:35:44;20;19;
64627;PMS5003;68467;50.960;0.314;2023-06-22T00:38:11;18;17;
64627;PMS5003;68467;50.960;0.314;2023-06-22T00:40:38;18;18;
64627;PMS5003;68467;50.960;0.314;2023-06-22T00:43:05;22;21;
64627;PMS5003;68467;50.960;0.314;2023-06-22T00:45:33;20;19;
64627;PMS5003;68467;50.960;0.314;2023-06-22T00:48:00;22;21;
64627;PMS5003;68467;50.960;0.314;2023-06-22T00:50:29;21;20;
64627;PMS5003;68467;50.960;0.314;2023-06-22T00:52:59;19;18;
64627;PMS5003;68467;50.960;0.314;2023-06-22T00:55:27;19;18;
64627;PMS5003;68467;50.960;0.314;2023-06-22T00:57:56;17;15;
64627;PMS5003;68467;50.960;0.314;2023-06-22T01:00:23;16;16;
64627;PMS5003;68467;50.960;0.314;2023-06-22T01:02:51;17;17;
64627;PMS5003;68467;50.960;0.314;2023-06-22T01:05:19;16;16;
64627;PMS5003;68467;50.960;0.314;2023-06-22T01:07:52;14;14;
64627;PMS5003;68467;50.960;0.314;2023-06-22T01:10:33;15;15;
64627;PMS5003;68467;50.960;0.314;2023-06-22T01:13:08;15;14;
64627;PMS5003;68467;50.960;0.314;2023-06-22T01:15:43;15;15;
64627;PMS5003;68467;50.960;0.314;2023-06-22T01:18:17;14;14;
64627;PMS5003;68467;50.960;0.314;2023-06-22T01:20:45;14;14;
64627;PMS5003;68467;50.960;0.314;2023-06-22T01:23:20;14;12;
64627;PMS5003;68467;50.960;0.314;2023-06-22T01:25:56;13;12;
64627;PMS5003;68467;50.960;0.314;2023-06-22T01:28:39;15;13;
64627;PMS5003;68467;50.960;0.314;2023-06-22T01:31:12;17;16;
64627;PMS5003;68467;50.960;0.314;2023-06-22T01:33:43;15;15;
64627;PMS5003;68467;50.960;0.314;2023-06-22T01:36:15;16;15;
64627;PMS5003;68467;50.960;0.314;2023-06-22T01:38:43;14;13;
64627;PMS5003;68467;50.960;0.314;2023-06-22T01:41:12;13;11;
64627;PMS5003;68467;50.960;0.314;2023-06-22T01:43:40;17;17;
64627;PMS5003;68467;50.960;0.314;2023-06-22T01:46:08;14;13;
64627;PMS5003;68467;50.960;0.314;2023-06-22T01:48:35;13;13;
64627;PMS5003;68467;50.960;0.314;2023-06-22T01:51:03;15;13;
64627;PMS5003;68467;50.960;0.314;2023-06-22T01:53:30;13;13;
64627;PMS5003;68467;50.960;0.314;2023-06-22T01:55:57;12;12;
64627;PMS5003;68467;50.960;0.314;2023-06-22T01:58:25;11;10;
64627;PMS5003;68467;50.960;0.314;2023-06-22T02:00:56;17;16;
64627;PMS5003;68467;50.960;0.314;2023-06-22T02:03:28;12;12;
64627;PMS5003;68467;50.960;0.314;2023-06-22T02:06:02;13;11;
64627;PMS5003;68467;50.960;0.314;2023-06-22T02:08:35;14;14;
64627;PMS5003;68467;50.960;0.314;2023-06-22T02:11:08;15;13;
64627;PMS5003;68467;50.960;0.314;2023-06-22T02:13:38;13;13;
64627;PMS5003;68467;50.960;0.314;2023-06-22T02:16:05;13;13;
64627;PMS5003;68467;50.960;0.314;2023-06-22T02:18:32;11;11;
64627;PMS5003;68467;50.960;0.314;2023-06-22T02:20:59;14;13;
64627;PMS5003;68467;50.960;0.314;2023-06-22T02:23:25;12;10;
64627;PMS5003;68467;50.960;0.314;2023-06-22T02:25:53;12;11;
64627;PMS5003;68467;50.960;0.314;2023-06-22T02:28:20;11;11;
64627;PMS5003;68467;50.960;0.314;2023-06-22T02:30:48;12;11;
64627;PMS5003;68467;50.960;0.314;2023-06-22T02:33:14;10;10;
64627;PMS5003;68467;50.960;0.314;2023-06-22T02:35:41;8;8;
64627;PMS5003;68467;50.960;0.314;2023-06-22T02:38:08;11;11;
64627;PMS5003;68467;50.960;0.314;2023-06-22T02:40:35;12;11;
64627;PMS5003;68467;50.960;0.314;2023-06-22T02:43:03;10;10;
64627;PMS5003;68467;50.960;0.314;2023-06-22T02:45:30;13;13;
64627;PMS5003;68467;50.960;0.314;2023-06-22T02:47:57;11;11;
64627;PMS5003;68467;50.960;0.314;2023-06-22T02:50:25;10;10;
64627;PMS5003;68467;50.960;0.314;2023-06-22T02:52:52;10;10;
64627;PMS5003;68467;50.960;0.314;2023-06-22T02:55:19;12;12;
64627;PMS5003;68467;50.960;0.314;2023-06-22T02:57:47;11;11;
64627;PMS5003;68467;50.960;0.314;2023-06-22T03:00:14;12;11;
64627;PMS5003;68467;50.960;0.314;2023-06-22T03:02:42;13;12;
64627;PMS5003;68467;50.960;0.314;2023-06-22T03:05:09;11;11;
64627;PMS5003;68467;50.960;0.314;2023-06-22T03:07:36;12;11;
64627;PMS5003;68467;50.960;0.314;2023-06-22T03:10:04;15;13;
64627;PMS5003;68467;50.960;0.314;2023-06-22T03:12:32;13;12;
64627;PMS5003;68467;50.960;0.314;2023-06-22T03:14:59;11;11;
64627;PMS5003;68467;50.960;0.314;2023-06-22T03:17:26;13;13;
64627;PMS5003;68467;50.960;0.314;2023-06-22T03:19:53;10;10;
64627;PMS5003;68467;50.960;0.314;2023-06-22T03:22:20;12;12;
64627;PMS5003;68467;50.960;0.314;2023-06-22T03:24:48;12;12;
64627;PMS5003;68467;50.960;0.314;2023-06-22T03:27:15;9;9;
64627;PMS5003;68467;50.960;0.314;2023-06-22T03:29:42;9;9;
64627;PMS5003;68467;50.960;0.314;2023-06-22T03:32:09;10;10;
64627;PMS5003;68467;50.960;0.314;2023-06-22T03:34:37;10;10;
64627;PMS5003;68467;50.960;0.314;2023-06-22T03:37:04;11;11;
64627;PMS5003;68467;50.960;0.314;2023-06-22T03:39:32;9;9;
64627;PMS5003;68467;50.960;0.314;2023-06-22T03:41:59;8;8;
64627;PMS5003;68467;50.960;0.314;2023-06-22T03:44:26;8;8;
64627;PMS5003;68467;50.960;0.314;2023-06-22T03:46:53;8;8;
64627;PMS5003;68467;50.960;0.314;2023-06-22T03:49:20;7;7;
64627;PMS5003;68467;50.960;0.314;2023-06-22T03:51:47;9;9;
64627;PMS5003;68467;50.960;0.314;2023-06-22T03:54:14;10;9;
64627;PMS5003;68467;50.960;0.314;2023-06-22T03:56:41;11;10;
64627;PMS5003;68467;50.960;0.314;2023-06-22T03:59:08;10;8;
64627;PMS5003;68467;50.960;0.314;2023-06-22T04:01:35;10;9;
64627;PMS5003;68467;50.960;0.314;2023-06-22T04:04:03;10;9;
64627;PMS5003;68467;50.960;0.314;2023-06-22T04:06:32;10;9;
64627;PMS5003;68467;50.960;0.314;2023-06-22T04:08:59;9;9;
64627;PMS5003;68467;50.960;0.314;2023-06-22T04:11:27;10;9;
64627;PMS5003;68467;50.960;0.314;2023-06-22T04:13:54;8;7;
64627;PMS5003;68467;50.960;0.314;2023-06-22T04:16:21;9;9;
64627;PMS5003;68467;50.960;0.314;2023-06-22T04:18:48;8;8;
64627;PMS5003;68467;50.960;0.314;2023-06-22T04:21:15;10;9;
64627;PMS5003;68467;50.960;0.314;2023-06-22T04:23:42;11;11;
64627;PMS5003;68467;50.960;0.314;2023-06-22T04:26:09;10;10;
64627;PMS5003;68467;50.960;0.314;2023-06-22T04:28:36;9;9;
64627;PMS5003;68467;50.960;0.314;2023-06-22T04:31:03;8;8;
64627;PMS5003;68467;50.960;0.314;2023-06-22T04:33:31;10;10;
64627;PMS5003;68467;50.960;0.314;2023-06-22T04:36:04;11;11;
64627;PMS5003;68467;50.960;0.314;2023-06-22T04:38:31;8;8;
64627;PMS5003;68467;50.960;0.314;2023-06-22T04:40:58;10;9;
64627;PMS5003;68467;50.960;0.314;2023-06-22T04:43:25;9;9;
64627;PMS5003;68467;50.960;0.314;2023-06-22T04:45:51;9;9;
64627;PMS5003;68467;50.960;0.314;2023-06-22T04:48:19;9;8;
64627;PMS5003;68467;50.960;0.314;2023-06-22T04:50:46;10;10;
64627;PMS5003;68467;50.960;0.314;2023-06-22T04:53:12;12;10;
64627;PMS5003;68467;50.960;0.314;2023-06-22T04:55:40;9;9;
64627;PMS5003;68467;50.960;0.314;2023-06-22T04:58:07;12;11;
64627;PMS5003;68467;50.960;0.314;2023-06-22T05:00:35;11;11;
64627;PMS5003;68467;50.960;0.314;2023-06-22T05:03:02;12;12;
64627;PMS5003;68467;50.960;0.314;2023-06-22T05:05:29;9;9;
64627;PMS5003;68467;50.960;0.314;2023-06-22T05:07:56;9;9;
64627;PMS5003;68467;50.960;0.314;2023-06-22T05:10:24;12;12;
64627;PMS5003;68467;50.960;0.314;2023-06-22T05:12:52;8;8;
64627;PMS5003;68467;50.960;0.314;2023-06-22T05:15:19;9;9;
64627;PMS5003;68467;50.960;0.314;2023-06-22T05:17:46;10;10;
64627;PMS5003;68467;50.960;0.314;2023-06-22T05:20:13;11;11;
64627;PMS5003;68467;50.960;0.314;2023-06-22T05:22:41;10;10;
64627;PMS5003;68467;50.960;0.314;2023-06-22T05:25:09;9;9;
64627;PMS5003;68467;50.960;0.314;2023-06-22T05:27:37;9;9;
64627;PMS5003;68467;50.960;0.314;2023-06-22T05:30:05;11;10;
64627;PMS5003;68467;50.960;0.314;2023-06-22T05:32:34;10;10;
64627;PMS5003;68467;50.960;0.314;2023-06-22T05:35:02;11;11;
64627;PMS5003;68467;50.960;0.314;2023-06-22T05:37:30;9;8;
64627;PMS5003;68467;50.960;0.314;2023-06-22T05:39:57;12;11;
64627;PMS5003;68467;50.960;0.314;2023-06-22T05:42:24;12;11;
64627;PMS5003;68467;50.960;0.314;2023-06-22T05:44:52;23;22;
64627;PMS5003;68467;50.960;0.314;2023-06-22T05:47:19;22;21;
64627;PMS5003;68467;50.960;0.314;2023-06-22T05:49:46;21;20;
64627;PMS5003;68467;50.960;0.314;2023-06-22T05:52:14;21;19;
64627;PMS5003;68467;50.960;0.314;2023-06-22T05:54:41;12;12;
64627;PMS5003;68467;50.960;0.314;2023-06-22T05:57:08;10;9;
64627;PMS5003;68467;50.960;0.314;2023-06-22T05:59:35;9;9;
64627;PMS5003;68467;50.960;0.314;2023-06-22T06:02:02;10;9;
64627;PMS5003;68467;50.960;0.314;2023-06-22T06:04:30;12;12;
64627;PMS5003;68467;50.960;0.314;2023-06-22T06:06:58;8;8;
64627;PMS5003;68467;50.960;0.314;2023-06-22T06:09:25;10;9;
64627;PMS5003;68467;50.960;0.314;2023-06-22T06:11:52;7;7;
64627;PMS5003;68467;50.960;0.314;2023-06-22T06:14:19;10;10;
64627;PMS5003;68467;50.960;0.314;2023-06-22T06:16:46;10;10;
64627;PMS5003;68467;50.960;0.314;2023-06-22T06:19:13;10;9;
64627;PMS5003;68467;50.960;0.314;2023-06-22T06:21:40;9;9;
64627;PMS5003;68467;50.960;0.314;2023-06-22T06:24:07;9;9;
64627;PMS5003;68467;50.960;0.314;2023-06-22T06:26:34;8;8;
64627;PMS5003;68467;50.960;0.314;2023-06-22T06:29:01;8;8;
64627;PMS5003;68467;50.960;0.314;2023-06-22T06:31:29;9;9;
64627;PMS5003;68467;50.960;0.314;2023-06-22T06:33:56;8;7;
64627;PMS5003;68467;50.960;0.314;2023-06-22T06:36:23;9;9;
64627;PMS5003;68467;50.960;0.314;2023-06-22T06:38:51;8;8;
64627;PMS5003;68467;50.960;0.314;2023-06-22T06:41:24;8;8;
64627;PMS5003;68467;50.960;0.314;2023-06-22T06:43:51;9;9;
64627;PMS5003;68467;50.960;0.314;2023-06-22T06:46:19;11;10;
64627;PMS5003;68467;50.960;0.314;2023-06-22T06:48:46;8;8;
64627;PMS5003;68467;50.960;0.314;2023-06-22T06:51:13;10;9;
64627;PMS5003;68467;50.960;0.314;2023-06-22T06:53:40;10;8;
64627;PMS5003;68467;50.960;0.314;2023-06-22T06:56:07;8;7;
64627;PMS5003;68467;50.960;0.314;2023-06-22T06:58:35;11;11;
64627;PMS5003;68467;50.960;0.314;2023-06-22T07:01:02;9;9;
64627;PMS5003;68467;50.960;0.314;2023-06-22T07:03:29;8;8;
64627;PMS5003;68467;50.960;0.314;2023-06-22T07:05:56;7;7;
64627;PMS5003;68467;50.960;0.314;2023-06-22T07:08:23;9;8;
64627;PMS5003;68467;50.960;0.314;2023-06-22T07:10:51;8;8;
64627;PMS5003;68467;50.960;0.314;2023-06-22T07:13:23;8;8;
64627;PMS5003;68467;50.960;0.314;2023-06-22T07:15:51;7;7;
64627;PMS5003;68467;50.960;0.314;2023-06-22T07:18:18;7;7;
64627;PMS5003;68467;50.960;0.314;2023-06-22T07:20:46;9;9;
64627;PMS5003;68467;50.960;0.314;2023-06-22T07:23:14;6;6;
64627;PMS5003;68467;50.960;0.314;2023-06-22T07:25:41;7;7;
64627;PMS5003;68467;50.960;0.314;2023-06-22T07:28:08;8;8;
64627;PMS5003;68467;50.960;0.314;2023-06-22T07:30:36;13;12;
64627;PMS5003;68467;50.960;0.314;2023-06-22T07:33:04;14;14;
64627;PMS5003;68467;50.960;0.314;2023-06-22T07:35:31;15;15;
64627;PMS5003;68467;50.960;0.314;2023-06-22T07:37:58;18;17;
64627;PMS5003;68467;50.960;0.314;2023-06-22T07:40:25;13;13;
64627;PMS5003;68467;50.960;0.314;2023-06-22T07:42:53;16;14;
64627;PMS5003;68467;50.960;0.314;2023-06-22T07:45:21;16;16;
64627;PMS5003;68467;50.960;0.314;2023-06-22T07:47:49;15;14;
64627;PMS5003;68467;50.960;0.314;2023-06-22T07:50:17;13;13;
64627;PMS5003;68467;50.960;0.314;2023-06-22T07:52:44;11;11;
64627;PMS5003;68467;50.960;0.314;2023-06-22T07:55:11;12;11;
64627;PMS5003;68467;50.960;0.314;2023-06-22T07:57:38;14;12;
64627;PMS5003;68467;50.960;0.314;2023-06-22T08:00:05;10;10;
64627;PMS5003;68467;50.960;0.314;2023-06-22T08:02:33;16;15;
64627;PMS5003;68467;50.960;0.314;2023-06-22T08:05:00;12;12;
64627;PMS5003;68467;50.960;0.314;2023-06-22T08:07:27;15;14;
64627;PMS5003;68467;50.960;0.314;2023-06-22T08:09:54;11;11;
64627;PMS5003;68467;50.960;0.314;2023-06-22T08:12:21;13;13;
64627;PMS5003;68467;50.960;0.314;2023-06-22T08:14:49;18;16;
64627;PMS5003;68467;50.960;0.314;2023-06-22T08:17:17;14;13;
64627;PMS5003;68467;50.960;0.314;2023-06-22T08:19:43;15;13;
64627;PMS5003;68467;50.960;0.314;2023-06-22T08:22:10;14;13;
64627;PMS5003;68467;50.960;0.314;2023-06-22T08:24:37;12;12;
64627;PMS5003;68467;50.960;0.314;2023-06-22T08:27:06;13;13;
64627;PMS5003;68467;50.960;0.314;2023-06-22T08:29:34;9;9;
64627;PMS5003;68467;50.960;0.314;2023-06-22T08:32:01;13;13;
64627;PMS5003;68467;50.960;0.314;2023-06-22T08:34:28;10;10;
64627;PMS5003;68467;50.960;0.314;2023-06-22T08:36:55;9;9;
64627;PMS5003;68467;50.960;0.314;2023-06-22T08:39:22;9;8;
64627;PMS5003;68467;50.960;0.314;2023-06-22T08:41:49;9;8;
64627;PMS5003;68467;50.960;0.314;2023-06-22T08:44:18;9;8;
64627;PMS5003;68467;50.960;0.314;2023-06-22T08:46:45;11;10;
64627;PMS5003;68467;50.960;0.314;2023-06-22T08:49:13;9;9;
64627;PMS5003;68467;50.960;0.314;2023-06-22T08:51:40;10;10;
64627;PMS5003;68467;50.960;0.314;2023-06-22T08:54:08;10;9;
64627;PMS5003;68467;50.960;0.314;2023-06-22T08:56:34;8;8;
64627;PMS5003;68467;50.960;0.314;2023-06-22T08:59:02;9;9;
64627;PMS5003;68467;50.960;0.314;2023-06-22T09:01:30;9;9;
64627;PMS5003;68467;50.960;0.314;2023-06-22T09:03:56;9;9;
64627;PMS5003;68467;50.960;0.314;2023-06-22T09:06:23;10;9;
64627;PMS5003;68467;50.960;0.314;2023-06-22T09:08:50;9;8;
64627;PMS5003;68467;50.960;0.314;2023-06-22T09:11:18;8;8;
64627;PMS5003;68467;50.960;0.314;2023-06-22T09:13:45;7;7;
64627;PMS5003;68467;50.960;0.314;2023-06-22T09:16:12;8;7;
64627;PMS5003;68467;50.960;0.314;2023-06-22T09:18:40;7;7;
64627;PMS5003;68467;50.960;0.314;2023-06-22T09:21:07;6;6;
64627;PMS5003;68467;50.960;0.314;2023-06-22T09:23:34;8;8;
64627;PMS5003;68467;50.960;0.314;2023-06-22T09:26:01;6;6;
64627;PMS5003;68467;50.960;0.314;2023-06-22T09:28:28;8;8;
64627;PMS5003;68467;50.960;0.314;2023-06-22T09:30:55;8;7;
64627;PMS5003;68467;50.960;0.314;2023-06-22T09:33:23;5;5;
64627;PMS5003;68467;50.960;0.314;2023-06-22T09:35:50;8;8;
64627;PMS5003;68467;50.960;0.314;2023-06-22T09:38:18;6;6;
64627;PMS5003;68467;50.960;0.314;2023-06-22T09:40:45;7;7;
64627;PMS5003;68467;50.960;0.314;2023-06-22T09:43:13;5;5;
64627;PMS5003;68467;50.960;0.314;2023-06-22T09:45:41;4;4;
64627;PMS5003;68467;50.960;0.314;2023-06-22T09:48:08;7;7;
64627;PMS5003;68467;50.960;0.314;2023-06-22T09:50:35;7;7;
64627;PMS5003;68467;50.960;0.314;2023-06-22T09:53:02;7;7;
64627;PMS5003;68467;50.960;0.314;2023-06-22T09:55:29;7;7;
64627;PMS5003;68467;50.960;0.314;2023-06-22T09:57:56;7;7;
64627;PMS5003;68467;50.960;0.314;2023-06-22T10:00:23;6;6;
64627;PMS5003;68467;50.960;0.314;2023-06-22T10:02:51;6;6;
64627;PMS5003;68467;50.960;0.314;2023-06-22T10:05:18;8;8;
64627;PMS5003;68467;50.960;0.314;2023-06-22T10:07:46;6;6;
64627;PMS5003;68467;50.960;0.314;2023-06-22T10:10:13;4;4;
64627;PMS5003;68467;50.960;0.314;2023-06-22T10:12:41;5;5;
64627;PMS5003;68467;50.960;0.314;2023-06-22T10:15:09;7;7;
64627;PMS5003;68467;50.960;0.314;2023-06-22T10:17:37;5;5;
64627;PMS5003;68467;50.960;0.314;2023-06-22T10:20:05;7;7;
64627;PMS5003;68467;50.960;0.314;2023-06-22T10:22:33;6;6;
64627;PMS5003;68467;50.960;0.314;2023-06-22T10:25:00;6;5;
64627;PMS5003;68467;50.960;0.314;2023-06-22T10:27:27;4;4;
64627;PMS5003;68467;50.960;0.314;2023-06-22T10:29:54;5;4;
64627;PMS5003;68467;50.960;0.314;2023-06-22T10:32:21;9;7;
64627;PMS5003;68467;50.960;0.314;2023-06-22T10:34:48;4;4;
64627;PMS5003;68467;50.960;0.314;2023-06-22T10:37:15;6;6;
64627;PMS5003;68467;50.960;0.314;2023-06-22T10:39:42;5;5;
64627;PMS5003;68467;50.960;0.314;2023-06-22T10:42:09;6;6;
64627;PMS5003;68467;50.960;0.314;2023-06-22T10:44:36;5;5;
64627;PMS5003;68467;50.960;0.314;2023-06-22T10:47:03;6;6;
64627;PMS5003;68467;50.960;0.314;2023-06-22T10:49:30;6;6;
64627;PMS5003;68467;50.960;0.314;2023-06-22T10:51:58;4;4;
64627;PMS5003;68467;50.960;0.314;2023-06-22T10:54:25;5;4;
64627;PMS5003;68467;50.960;0.314;2023-06-22T10:56:52;6;6;
64627;PMS5003;68467;50.960;0.314;2023-06-22T10:59:18;5;5;
64627;PMS5003;68467;50.960;0.314;2023-06-22T11:01:46;5;5;
64627;PMS5003;68467;50.960;0.314;2023-06-22T11:04:14;5;5;
64627;PMS5003;68467;50.960;0.314;2023-06-22T11:06:42;6;6;
64627;PMS5003;68467;50.960;0.314;2023-06-22T11:09:09;4;4;
64627;PMS5003;68467;50.960;0.314;2023-06-22T11:11:37;5;5;
64627;PMS5003;68467;50.960;0.314;2023-06-22T11:14:04;6;6;
64627;PMS5003;68467;50.960;0.314;2023-06-22T11:16:31;7;6;
64627;PMS5003;68467;50.960;0.314;2023-06-22T11:18:58;6;6;
64627;PMS5003;68467;50.960;0.314;2023-06-22T11:21:24;6;6;
64627;PMS5003;68467;50.960;0.314;2023-06-22T11:23:52;5;5;
64627;PMS5003;68467;50.960;0.314;2023-06-22T11:26:19;8;6;
64627;PMS5003;68467;50.960;0.314;2023-06-22T11:28:46;8;8;
64627;PMS5003;68467;50.960;0.314;2023-06-22T11:31:13;6;6;
64627;PMS5003;68467;50.960;0.314;2023-06-22T11:33:40;7;7;
64627;PMS5003;68467;50.960;0.314;2023-06-22T11:36:07;6;6;
64627;PMS5003;68467;50.960;0.314;2023-06-22T11:38:35;8;6;
64627;PMS5003;68467;50.960;0.314;2023-06-22T11:41:02;6;6;
64627;PMS5003;68467;50.960;0.314;2023-06-22T11:43:29;7;6;
64627;PMS5003;68467;50.960;0.314;2023-06-22T11:45:55;5;5;
64627;PMS5003;68467;50.960;0.314;2023-06-22T11:48:23;11;9;
64627;PMS5003;68467;50.960;0.314;2023-06-22T11:50:50;5;5;
64627;PMS5003;68467;50.960;0.314;2023-06-22T11:53:18;5;5;
64627;PMS5003;68467;50.960;0.314;2023-06-22T11:55:46;7;7;
64627;PMS5003;68467;50.960;0.314;2023-06-22T11:58:14;6;6;
64627;PMS5003;68467;50.960;0.314;2023-06-22T12:00:41;5;5;
64627;PMS5003;68467;50.960;0.314;2023-06-22T12:03:09;5;5;
64627;PMS5003;68467;50.960;0.314;2023-06-22T12:05:35;5;5;
64627;PMS5003;68467;50.960;0.314;2023-06-22T12:08:03;5;5;
64627;PMS5003;68467;50.960;0.314;2023-06-22T12:10:31;5;5;
64627;PMS5003;68467;50.960;0.314;2023-06-22T12:12:58;6;5;
64627;PMS5003;68467;50.960;0.314;2023-06-22T12:15:25;7;6;
64627;PMS5003;68467;50.960;0.314;2023-06-22T12:17:53;8;8;
64627;PMS5003;68467;50.960;0.314;2023-06-22T12:20:20;5;5;
64627;PMS5003;68467;50.960;0.314;2023-06-22T12:22:47;6;6;
64627;PMS5003;68467;50.960;0.314;2023-06-22T12:25:13;6;6;
64627;PMS5003;68467;50.960;0.314;2023-06-22T12:27:40;7;6;
64627;PMS5003;68467;50.960;0.314;2023-06-22T12:30:08;4;4;
64627;PMS5003;68467;50.960;0.314;2023-06-22T12:32:36;4;4;
64627;PMS5003;68467;50.960;0.314;2023-06-22T12:35:03;6;5;
64627;PMS5003;68467;50.960;0.314;2023-06-22T12:37:31;7;7;
64627;PMS5003;68467;50.960;0.314;2023-06-22T12:39:58;6;6;
64627;PMS5003;68467;50.960;0.314;2023-06-22T12:42:25;5;5;
64627;PMS5003;68467;50.960;0.314;2023-06-22T12:44:52;7;7;
64627;PMS5003;68467;50.960;0.314;2023-06-22T12:47:19;7;6;
64627;PMS5003;68467;50.960;0.314;2023-06-22T12:49:47;7;7;
64627;PMS5003;68467;50.960;0.314;2023-06-22T12:52:14;6;6;
64627;PMS5003;68467;50.960;0.314;2023-06-22T12:54:41;6;6;
64627;PMS5003;68467;50.960;0.314;2023-06-22T12:57:08;7;7;
64627;PMS5003;68467;50.960;0.314;2023-06-22T12:59:35;9;8;
64627;PMS5003;68467;50.960;0.314;2023-06-22T13:02:01;5;5;
64627;PMS5003;68467;50.960;0.314;2023-06-22T13:04:29;4;4;
64627;PMS5003;68467;50.960;0.314;2023-06-22T13:06:56;6;6;
64627;PMS5003;68467;50.960;0.314;2023-06-22T13:09:23;5;5;
64627;PMS5003;68467;50.960;0.314;2023-06-22T13:11:51;6;6;
64627;PMS5003;68467;50.960;0.314;2023-06-22T13:14:19;5;5;
64627;PMS5003;68467;50.960;0.314;2023-06-22T13:16:45;8;7;
64627;PMS5003;68467;50.960;0.314;2023-06-22T13:19:12;6;6;
64627;PMS5003;68467;50.960;0.314;2023-06-22T13:21:39;6;5;
64627;PMS5003;68467;50.960;0.314;2023-06-22T13:24:07;5;5;
64627;PMS5003;68467;50.960;0.314;2023-06-22T13:26:34;7;6;
64627;PMS5003;68467;50.960;0.314;2023-06-22T13:29:01;7;7;
64627;PMS5003;68467;50.960;0.314;2023-06-22T13:31:29;6;6;
64627;PMS5003;68467;50.960;0.314;2023-06-22T13:33:55;6;6;
64627;PMS5003;68467;50.960;0.314;2023-06-22T13:36:22;4;4;
64627;PMS5003;68467;50.960;0.314;2023-06-22T13:38:49;7;7;
64627;PMS5003;68467;50.960;0.314;2023-06-22T13:41:17;5;5;
64627;PMS5003;68467;50.960;0.314;2023-06-22T13:43:44;6;6;
64627;PMS5003;68467;50.960;0.314;2023-06-22T13:46:11;6;6;
64627;PMS5003;68467;50.960;0.314;2023-06-22T13:48:38;4;4;
64627;PMS5003;68467;50.960;0.314;2023-06-22T13:51:06;6;6;
64627;PMS5003;68467;50.960;0.314;2023-06-22T13:53:33;5;5;
64627;PMS5003;68467;50.960;0.314;2023-06-22T13:56:00;5;5;
64627;PMS5003;68467;50.960;0.314;2023-06-22T13:58:27;3;3;
64627;PMS5003;68467;50.960;0.314;2023-06-22T14:00:54;6;5;
64627;PMS5003;68467;50.960;0.314;2023-06-22T14:03:21;6;6;
64627;PMS5003;68467;50.960;0.314;2023-06-22T14:05:48;6;6;
64627;PMS5003;68467;50.960;0.314;2023-06-22T14:08:16;7;7;
64627;PMS5003;68467;50.960;0.314;2023-06-22T14:10:43;6;6;
64627;PMS5003;68467;50.960;0.314;2023-06-22T14:13:10;5;5;
64627;PMS5003;68467;50.960;0.314;2023-06-22T14:15:37;7;7;
64627;PMS5003;68467;50.960;0.314;2023-06-22T14:18:04;6;6;
64627;PMS5003;68467;50.960;0.314;2023-06-22T14:20:31;7;7;
64627;PMS5003;68467;50.960;0.314;2023-06-22T14:22:59;6;6;
64627;PMS5003;68467;50.960;0.314;2023-06-22T14:25:26;6;5;
64627;PMS5003;68467;50.960;0.314;2023-06-22T14:27:53;5;5;
64627;PMS5003;68467;50.960;0.314;2023-06-22T14:30:19;7;6;
64627;PMS5003;68467;50.960;0.314;2023-06-22T14:32:46;5;5;
64627;PMS5003;68467;50.960;0.314;2023-06-22T14:35:14;4;4;
64627;PMS5003;68467;50.960;0.314;2023-06-22T14:37:41;6;6;
64627;PMS5003;68467;50.960;0.314;2023-06-22T14:40:10;7;7;
64627;PMS5003;68467;50.960;0.314;2023-06-22T14:42:38;6;5;
64627;PMS5003;68467;50.960;0.314;2023-06-22T14:45:06;5;5;
64627;PMS5003;68467;50.960;0.314;2023-06-22T14:47:34;7;7;
64627;PMS5003;68467;50.960;0.314;2023-06-22T14:50:01;5;5;
64627;PMS5003;68467;50.960;0.314;2023-06-22T14:52:29;6;6;
64627;PMS5003;68467;50.960;0.314;2023-06-22T14:54:57;5;5;
64627;PMS5003;68467;50.960;0.314;2023-06-22T14:57:24;6;6;
64627;PMS5003;68467;50.960;0.314;2023-06-22T14:59:51;4;4;
64627;PMS5003;68467;50.960;0.314;2023-06-22T15:02:19;8;7;
64627;PMS5003;68467;50.960;0.314;2023-06-22T15:04:46;9;8;
64627;PMS5003;68467;50.960;0.314;2023-06-22T15:07:12;6;6;
64627;PMS5003;68467;50.960;0.314;2023-06-22T15:09:39;6;6;
64627;PMS5003;68467;50.960;0.314;2023-06-22T15:12:06;6;6;
64627;PMS5003;68467;50.960;0.314;2023-06-22T15:14:34;8;7;
64627;PMS5003;68467;50.960;0.314;2023-06-22T15:17:02;8;6;
64627;PMS5003;68467;50.960;0.314;2023-06-22T15:19:29;10;10;
64627;PMS5003;68467;50.960;0.314;2023-06-22T15:21:57;10;9;
64627;PMS5003;68467;50.960;0.314;2023-06-22T15:24:24;12;10;
64627;PMS5003;68467;50.960;0.314;2023-06-22T15:26:52;11;11;
64627;PMS5003;68467;50.960;0.314;2023-06-22T15:29:19;12;12;
64627;PMS5003;68467;50.960;0.314;2023-06-22T15:31:46;10;10;
64627;PMS5003;68467;50.960;0.314;2023-06-22T15:34:13;9;9;
64627;PMS5003;68467;50.960;0.314;2023-06-22T15:36:40;8;8;
64627;PMS5003;68467;50.960;0.314;2023-06-22T15:39:08;9;9;
64627;PMS5003;68467;50.960;0.314;2023-06-22T15:41:35;11;11;
64627;PMS5003;68467;50.960;0.314;2023-06-22T15:44:02;11;11;
64627;PMS5003;68467;50.960;0.314;2023-06-22T15:46:29;10;9;
64627;PMS5003;68467;50.960;0.314;2023-06-22T15:48:57;12;12;
64627;PMS5003;68467;50.960;0.314;2023-06-22T15:51:24;11;11;
64627;PMS5003;68467;50.960;0.314;2023-06-22T15:53:51;9;9;
64627;PMS5003;68467;50.960;0.314;2023-06-22T15:56:18;10;9;
64627;PMS5003;68467;50.960;0.314;2023-06-22T15:58:46;8;8;
64627;PMS5003;68467;50.960;0.314;2023-06-22T16:01:13;12;11;
64627;PMS5003;68467;50.960;0.314;2023-06-22T16:03:39;10;10;
64627;PMS5003;68467;50.960;0.314;2023-06-22T16:06:06;11;11;
64627;PMS5003;68467;50.960;0.314;2023-06-22T16:08:34;10;10;
64627;PMS5003;68467;50.960;0.314;2023-06-22T16:11:01;8;8;
64627;PMS5003;68467;50.960;0.314;2023-06-22T16:13:28;9;9;
64627;PMS5003;68467;50.960;0.314;2023-06-22T16:15:55;10;9;
64627;PMS5003;68467;50.960;0.314;2023-06-22T16:18:23;9;8;
64627;PMS5003;68467;50.960;0.314;2023-06-22T16:20:50;10;10;
64627;PMS5003;68467;50.960;0.314;2023-06-22T16:23:17;13;11;
64627;PMS5003;68467;50.960;0.314;2023-06-22T16:25:45;9;9;
64627;PMS5003;68467;50.960;0.314;2023-06-22T16:28:13;12;12;
64627;PMS5003;68467;50.960;0.314;2023-06-22T16:30:40;10;10;
64627;PMS5003;68467;50.960;0.314;2023-06-22T16:33:07;11;10;
64627;PMS5003;68467;50.960;0.314;2023-06-22T16:35:34;10;9;
64627;PMS5003;68467;50.960;0.314;2023-06-22T16:38:02;8;7;